Time;durP1;ratioP1;P1;durP2;ratioP2;P2;SDS_P1;SDS_P2;PMS_P1;PMS_P2;Temp;Humidity;BMP_temperature;BMP_pressure;BME280_temperature;BME280_humidity;BME280_pressure;Samples;Min_cycle;Max_cycle;Signal;HPM_P1;HPM_P2
2023/04/07 00:01:54;;;;;;;10.03;6.50;;;4.00;99.90;;;;;;10375303;28;20200;-81
2023/04/07 00:07:35;;;;;;;11.70;7.10;;;3.90;99.90;;;;;;10383416;28;20231;-80
2023/04/07 00:12:59;;;;;;;11.27;6.67;;;3.90;99.90;;;;;;10414904;28;20192;-79
2023/04/07 00:18:20;;;;;;;11.07;7.17;;;3.90;99.90;;;;;;10399505;28;20222;-82
2023/04/07 00:23:42;;;;;;;11.00;7.37;;;3.90;99.90;;;;;;10370520;28;20231;-80
2023/04/07 00:29:03;;;;;;;14.17;7.50;;;3.90;99.90;;;;;;10389337;28;20208;-78
2023/04/07 00:34:24;;;;;;;13.57;7.63;;;3.80;99.90;;;;;;10400267;28;20214;-78
2023/04/07 00:39:45;;;;;;;11.67;6.83;;;4.00;99.90;;;;;;10380562;28;20204;-78
2023/04/07 00:45:08;;;;;;;13.90;6.33;;;3.90;99.90;;;;;;10448589;28;20245;-79
2023/04/07 00:50:30;;;;;;;10.27;7.00;;;4.10;99.90;;;;;;10379204;28;20213;-79
2023/04/07 00:55:51;;;;;;;10.10;6.50;;;4.30;99.90;;;;;;10361247;28;20228;-78
2023/04/07 01:01:20;;;;;;;9.63;5.80;;;4.20;99.90;;;;;;10406882;28;20208;-78
2023/04/07 01:06:49;;;;;;;9.30;5.23;;;4.30;99.90;;;;;;10423487;28;20204;-78
2023/04/07 01:12:19;;;;;;;9.40;6.13;;;4.20;99.90;;;;;;10424029;28;20275;-78
2023/04/07 01:17:46;;;;;;;7.83;6.00;;;4.20;99.90;;;;;;10402432;28;20565;-79
2023/04/07 01:23:16;;;;;;;8.07;5.93;;;4.10;99.90;;;;;;10355790;28;20225;-77
2023/04/07 01:29:14;;;;;;;7.23;5.37;;;4.10;99.90;;;;;;10356260;28;20193;-79
2023/04/07 01:34:37;;;;;;;7.23;5.70;;;4.10;99.90;;;;;;10368983;28;20197;-78
2023/04/07 01:39:58;;;;;;;7.73;5.97;;;3.90;99.90;;;;;;10354480;28;20419;-78
2023/04/07 01:45:20;;;;;;;8.57;6.50;;;3.90;99.90;;;;;;10360262;28;20598;-78
2023/04/07 01:50:43;;;;;;;7.90;5.77;;;4.00;99.90;;;;;;10390228;28;20279;-77
2023/04/07 01:56:04;;;;;;;8.33;5.77;;;4.00;99.90;;;;;;10384753;28;20258;-78
2023/04/07 02:01:53;;;;;;;6.50;5.13;;;4.10;99.90;;;;;;10365274;28;20193;-77
2023/04/07 02:07:21;;;;;;;10.10;6.33;;;4.20;99.90;;;;;;10390670;28;20569;-78
2023/04/07 02:12:46;;;;;;;10.97;6.87;;;4.20;99.90;;;;;;10363390;28;20239;-78
2023/04/07 02:18:11;;;;;;;8.83;6.17;;;4.20;99.90;;;;;;10340677;28;20232;-78
2023/04/07 02:23:34;;;;;;;7.33;5.63;;;4.10;99.90;;;;;;10408386;28;20192;-79
2023/04/07 02:28:55;;;;;;;8.43;6.03;;;4.10;99.90;;;;;;10358951;28;20204;-78
2023/04/07 02:34:17;;;;;;;9.00;6.10;;;4.20;99.90;;;;;;10353602;28;20431;-79
2023/04/07 02:39:38;;;;;;;9.27;6.30;;;4.20;99.90;;;;;;10357675;28;20221;-78
2023/04/07 02:44:59;;;;;;;8.70;5.53;;;4.30;99.90;;;;;;10354459;28;20480;-78
2023/04/07 02:50:21;;;;;;;9.23;6.33;;;4.30;99.90;;;;;;10403641;28;20199;-79
2023/04/07 02:55:42;;;;;;;9.07;6.37;;;4.30;99.90;;;;;;10402632;28;20225;-79
2023/04/07 03:01:03;;;;;;;9.27;6.93;;;4.20;99.90;;;;;;10375329;28;20205;-77
2023/04/07 03:06:27;;;;;;;13.67;7.77;;;4.30;99.90;;;;;;10376883;28;20558;-77
2023/04/07 03:11:58;;;;;;;12.27;8.23;;;4.30;99.90;;;;;;10354052;28;20213;-78
2023/04/07 03:17:24;;;;;;;11.03;7.17;;;4.30;99.90;;;;;;10360447;28;20232;-77
2023/04/07 03:22:46;;;;;;;16.07;8.77;;;4.30;99.90;;;;;;10371162;28;20372;-77
2023/04/07 03:28:16;;;;;;;12.00;7.47;;;4.30;99.90;;;;;;10392092;28;20285;-78
2023/04/07 03:33:37;;;;;;;11.10;8.13;;;4.20;99.90;;;;;;10414374;28;20268;-78
2023/04/07 03:38:58;;;;;;;11.53;7.73;;;4.20;99.90;;;;;;10380479;28;20224;-77
2023/04/07 03:44:20;;;;;;;12.47;8.83;;;4.20;99.90;;;;;;10362956;28;20245;-79
2023/04/07 03:49:41;;;;;;;11.00;7.70;;;4.20;99.90;;;;;;10383967;28;20200;-76
2023/04/07 03:55:04;;;;;;;14.97;8.87;;;4.20;99.90;;;;;;10400152;28;20204;-78
2023/04/07 04:00:26;;;;;;;13.23;8.43;;;4.30;99.90;;;;;;10397242;28;20215;-79
2023/04/07 04:05:58;;;;;;;12.40;7.80;;;4.30;99.90;;;;;;10384985;28;20233;-78
2023/04/07 04:11:23;;;;;;;14.83;9.03;;;4.20;99.90;;;;;;10409915;28;20515;-78
2023/04/07 04:16:50;;;;;;;12.37;8.87;;;4.20;99.90;;;;;;10374432;28;20227;-78
2023/04/07 04:22:35;;;;;;;13.97;8.53;;;4.30;99.90;;;;;;10367875;28;20261;-78
2023/04/07 04:27:57;;;;;;;16.03;9.30;;;4.40;99.90;;;;;;10362296;28;20379;-78
2023/04/07 04:33:20;;;;;;;13.27;8.83;;;4.20;99.90;;;;;;10360036;28;20275;-78
2023/04/07 04:38:46;;;;;;;14.60;8.57;;;4.30;99.90;;;;;;10371214;28;20229;-77
2023/04/07 04:44:11;;;;;;;13.17;7.90;;;4.30;99.90;;;;;;10376326;28;20531;-79
2023/04/07 04:49:34;;;;;;;13.70;9.60;;;4.30;99.90;;;;;;10393749;28;20274;-78
2023/04/07 04:54:57;;;;;;;12.67;8.13;;;4.40;99.90;;;;;;10397489;28;20507;-81
2023/04/07 05:00:20;;;;;;;14.40;9.67;;;4.50;99.90;;;;;;10372851;28;20204;-80
2023/04/07 05:05:47;;;;;;;14.53;9.40;;;4.40;99.90;;;;;;10372479;28;20209;-79
2023/04/07 05:11:11;;;;;;;15.23;9.60;;;4.40;99.90;;;;;;10369497;28;20190;-80
2023/04/07 05:16:35;;;;;;;19.23;11.07;;;4.40;99.90;;;;;;10386473;28;20278;-79
2023/04/07 05:21:58;;;;;;;16.60;10.33;;;4.40;99.90;;;;;;10400844;28;20209;-80
2023/04/07 05:27:20;;;;;;;46.40;23.77;;;4.50;99.90;;;;;;10412290;28;20228;-80
2023/04/07 05:32:46;;;;;;;69.50;32.57;;;4.30;99.90;;;;;;10392675;28;20209;-77
2023/04/07 05:38:16;;;;;;;53.83;24.37;;;4.40;99.90;;;;;;10354592;28;20236;-78
2023/04/07 05:43:38;;;;;;;24.47;14.77;;;4.40;99.90;;;;;;10368463;28;20236;-78
2023/04/07 05:49:00;;;;;;;22.70;11.67;;;4.40;99.90;;;;;;10375748;28;20259;-78
2023/04/07 05:54:27;;;;;;;20.57;12.03;;;4.40;99.90;;;;;;10395201;28;20196;-78
2023/04/07 05:59:51;;;;;;;14.27;9.50;;;4.40;99.90;;;;;;10393819;28;20243;-78
2023/04/07 06:05:13;;;;;;;23.57;13.90;;;4.50;99.90;;;;;;10368224;28;20215;-77
2023/04/07 06:10:34;;;;;;;16.23;9.97;;;4.50;99.90;;;;;;10367984;28;20223;-78
2023/04/07 06:15:55;;;;;;;16.73;9.30;;;4.60;99.90;;;;;;10364112;28;20530;-77
2023/04/07 06:21:16;;;;;;;14.50;8.70;;;4.70;99.90;;;;;;10385771;28;20285;-82
2023/04/07 06:26:39;;;;;;;18.40;10.57;;;4.70;99.90;;;;;;10395338;28;20243;-86
2023/04/07 06:32:01;;;;;;;14.43;8.33;;;4.70;99.90;;;;;;10392141;28;20189;-79
2023/04/07 06:37:23;;;;;;;14.33;8.80;;;4.80;99.90;;;;;;10352789;28;20228;-78
2023/04/07 06:42:44;;;;;;;19.30;9.80;;;4.80;99.90;;;;;;10352977;28;20203;-78
2023/04/07 06:48:29;;;;;;;20.27;11.47;;;4.80;99.90;;;;;;10380557;28;20216;-78
2023/04/07 06:53:50;;;;;;;15.77;9.37;;;5.00;99.90;;;;;;10410209;28;20197;-78
2023/04/07 06:59:11;;;;;;;26.03;12.93;;;5.00;99.90;;;;;;10359971;28;20426;-78
2023/04/07 07:04:33;;;;;;;18.37;10.37;;;5.00;99.90;;;;;;10369777;28;20193;-78
2023/04/07 07:09:54;;;;;;;18.63;10.20;;;5.00;99.90;;;;;;10374913;28;20260;-78
2023/04/07 07:15:16;;;;;;;16.00;9.80;;;5.10;99.90;;;;;;10401239;28;20194;-79
2023/04/07 07:20:38;;;;;;;14.20;9.30;;;5.20;99.90;;;;;;10374049;28;20303;-77
2023/04/07 07:25:59;;;;;;;16.50;10.10;;;5.20;99.90;;;;;;10398210;28;20334;-77
2023/04/07 07:31:21;;;;;;;15.47;9.53;;;5.30;99.90;;;;;;10388274;28;20204;-79
2023/04/07 07:36:42;;;;;;;20.17;12.73;;;5.30;99.90;;;;;;10389573;28;20251;-79
2023/04/07 07:42:03;;;;;;;17.97;10.10;;;5.40;99.90;;;;;;10394258;28;20208;-80
2023/04/07 07:47:25;;;;;;;15.40;9.70;;;5.50;99.90;;;;;;10395015;28;20294;-83
2023/04/07 07:52:46;;;;;;;21.93;11.50;;;5.50;99.90;;;;;;10394862;28;20438;-80
2023/04/07 07:58:08;;;;;;;15.73;9.73;;;5.50;99.90;;;;;;10394177;28;20228;-77
2023/04/07 08:03:29;;;;;;;16.10;9.57;;;5.60;99.90;;;;;;10392788;28;20208;-79
2023/04/07 08:08:50;;;;;;;18.57;9.50;;;5.60;99.90;;;;;;10434226;28;20216;-78
2023/04/07 08:14:11;;;;;;;16.40;10.13;;;5.80;99.90;;;;;;10420916;28;20275;-77
2023/04/07 08:19:32;;;;;;;23.63;13.73;;;5.80;99.90;;;;;;10396754;28;20286;-79
2023/04/07 08:24:54;;;;;;;69.43;42.00;;;6.00;99.90;;;;;;10354548;28;20203;-77
2023/04/07 08:30:15;;;;;;;38.40;23.87;;;5.90;99.90;;;;;;10385129;28;20198;-80
2023/04/07 08:35:37;;;;;;;26.23;17.30;;;6.00;99.90;;;;;;10384819;28;20386;-77
2023/04/07 08:41:06;;;;;;;18.07;10.97;;;6.20;99.90;;;;;;10374365;28;20503;-78
2023/04/07 08:46:29;;;;;;;15.73;10.30;;;6.20;99.90;;;;;;10352077;28;20337;-77
2023/04/07 08:51:52;;;;;;;27.73;14.63;;;6.30;99.90;;;;;;10353553;28;20395;-76
2023/04/07 08:57:15;;;;;;;19.73;11.90;;;6.40;99.90;;;;;;10371992;28;20234;-74
2023/04/07 09:02:43;;;;;;;25.37;13.23;;;6.50;99.90;;;;;;10351927;28;20197;-84
2023/04/07 09:08:05;;;;;;;39.33;18.93;;;6.50;99.90;;;;;;10337813;28;20245;-78
2023/04/07 09:13:26;;;;;;;39.57;19.60;;;6.70;99.90;;;;;;10385649;28;20215;-79
2023/04/07 09:18:48;;;;;;;27.57;15.03;;;6.70;99.90;;;;;;10426576;28;20240;-76
2023/04/07 09:24:27;;;;;;;26.73;15.83;;;6.80;99.90;;;;;;10383302;28;20212;-78
2023/04/07 09:29:48;;;;;;;35.33;19.50;;;6.90;99.90;;;;;;10383649;28;20207;-78
2023/04/07 09:35:09;;;;;;;32.73;17.03;;;7.00;99.90;;;;;;10378966;28;20237;-81
2023/04/07 09:40:31;;;;;;;19.93;13.57;;;7.10;99.90;;;;;;10350278;28;20636;-81
2023/04/07 09:46:05;;;;;;;19.27;12.83;;;7.10;99.90;;;;;;10354750;28;20237;-77
2023/04/07 09:51:26;;;;;;;35.87;18.90;;;7.30;99.90;;;;;;10387223;28;20203;-77
2023/04/07 09:56:47;;;;;;;52.07;23.43;;;7.50;99.90;;;;;;10390981;28;20517;-79
2023/04/07 10:02:12;;;;;;;53.57;25.13;;;7.60;99.90;;;;;;10418672;28;20203;-82
2023/04/07 10:07:34;;;;;;;32.10;18.97;;;7.70;99.90;;;;;;10429035;28;20194;-78
2023/04/07 10:12:57;;;;;;;51.07;23.67;;;7.60;99.90;;;;;;10424867;28;20209;-81
2023/04/07 10:18:20;;;;;;;38.30;20.80;;;7.90;99.90;;;;;;10390773;28;20241;-82
2023/04/07 10:23:53;;;;;;;24.17;14.50;;;8.10;99.90;;;;;;10348225;28;20219;-78
2023/04/07 10:29:15;;;;;;;35.93;19.50;;;8.20;99.90;;;;;;10350637;28;20237;-77
2023/04/07 10:34:56;;;;;;;43.07;23.23;;;8.40;99.90;;;;;;10351000;28;20200;-83
2023/04/07 10:40:20;;;;;;;32.30;17.90;;;8.80;99.90;;;;;;10352464;28;20294;-79
2023/04/07 10:45:47;;;;;;;46.77;24.83;;;9.10;99.90;;;;;;10349745;28;20265;-78
2023/04/07 10:51:14;;;;;;;47.17;24.17;;;9.40;99.90;;;;;;10384821;28;20196;-78
2023/04/07 10:57:02;;;;;;;37.80;18.80;;;9.60;99.90;;;;;;10352635;28;20263;-78
2023/04/07 11:02:23;;;;;;;21.77;13.83;;;9.90;99.90;;;;;;10361432;28;20205;-81
2023/04/07 11:07:54;;;;;;;43.00;23.33;;;10.30;99.90;;;;;;10442386;28;20227;-79
2023/04/07 11:13:17;;;;;;;27.10;14.93;;;10.80;99.90;;;;;;10429799;28;20252;-79
2023/04/07 11:18:38;;;;;;;34.60;19.53;;;11.20;99.90;;;;;;10396838;28;20227;-79
2023/04/07 11:23:59;;;;;;;21.43;13.27;;;11.70;99.90;;;;;;10400685;28;20506;-78
2023/04/07 11:29:31;;;;;;;30.67;16.17;;;12.10;99.90;;;;;;10396260;28;20740;-78
2023/04/07 11:34:52;;;;;;;18.17;10.97;;;12.50;99.90;;;;;;10393867;28;20200;-78
2023/04/07 11:40:32;;;;;;;15.73;10.07;;;;;;;;;;10358901;28;20273;-77
2023/04/07 11:46:08;;;;;;;16.43;11.37;;;12.40;99.90;;;;;;10353811;28;20250;-80
2023/04/07 11:51:30;;;;;;;17.87;11.37;;;12.40;99.90;;;;;;10392451;28;20658;-79
2023/04/07 11:56:54;;;;;;;22.47;12.83;;;12.30;99.90;;;;;;10358276;28;20282;-81
2023/04/07 12:02:34;;;;;;;25.23;14.30;;;12.80;99.90;;;;;;10353443;28;20283;-82
2023/04/07 12:07:56;;;;;;;23.50;13.73;;;;;;;;;;10370625;28;20515;-79
2023/04/07 12:13:18;;;;;;;20.75;10.30;;;;;;;;;;10422778;28;20220;-79
2023/04/07 12:18:39;;;;;;;15.43;8.20;;;;;;;;;;10393223;28;20262;-77
2023/04/07 12:24:01;;;;;;;16.80;8.85;;;;;;;;;;10389218;28;20237;-78
2023/04/07 12:29:22;;;;;;;17.77;10.57;;;;;;;;;;10358437;28;20214;-81
2023/04/07 12:34:44;;;;;;;20.58;10.85;;;;;;;;;;10367551;28;20199;-81
2023/04/07 12:40:06;;;;;;;12.68;9.00;;;;;;;;;;10370978;28;20590;-80
2023/04/07 12:45:33;;;;;;;11.80;7.00;;;;;;;;;;10402649;28;20234;-79
2023/04/07 12:50:55;;;;;;;13.05;9.43;;;;;;;;;;10392646;28;20228;-79
2023/04/07 12:56:21;;;;;;;10.88;7.03;;;;;;;;;;10377027;28;20404;-82
2023/04/07 13:01:42;;;;;;;12.82;8.55;;;;;;;;;;10366094;28;20553;-81
2023/04/07 13:07:04;;;;;;;11.45;7.88;;;;;;;;;;10411616;28;20235;-80
2023/04/07 13:12:25;;;;;;;12.65;7.40;;;15.70;99.90;;;;;;10392622;28;20383;-79
2023/04/07 13:17:51;;;;;;;15.38;8.80;;;15.80;66.90;;;;;;10405744;28;20246;-80
2023/04/07 13:23:13;;;;;;;12.25;7.72;;;15.50;73.00;;;;;;10395151;28;20516;-79
2023/04/07 13:28:34;;;;;;;13.05;7.47;;;15.10;78.70;;;;;;10391955;28;20199;-80
2023/04/07 13:34:00;;;;;;;12.68;9.30;;;14.70;82.40;;;;;;10388502;28;20279;-79
2023/04/07 13:39:21;;;;;;;14.75;11.63;;;14.60;85.80;;;;;;10349544;28;20492;-79
2023/04/07 13:44:46;;;;;;;18.70;15.00;;;14.40;85.20;;;;;;10349788;28;20310;-78
2023/04/07 13:50:07;;;;;;;12.10;7.40;;;14.40;89.10;;;;;;10378158;28;20441;-78
2023/04/07 13:55:29;;;;;;;11.77;7.13;;;14.40;90.80;;;;;;10387394;28;20397;-78
2023/04/07 14:00:50;;;;;;;15.80;6.75;;;14.10;89.10;;;;;;10386318;28;20302;-80
2023/04/07 14:06:11;;;;;;;14.82;8.20;;;13.90;91.90;;;;;;10403712;28;20200;-81
2023/04/07 14:11:33;;;;;;;11.65;7.82;;;13.80;91.20;;;;;;10363615;28;20211;-78
2023/04/07 14:16:55;;;;;;;16.17;8.77;;;13.60;93.60;;;;;;10392946;28;20220;-83
2023/04/07 14:22:17;;;;;;;15.98;7.45;;;13.60;94.40;;;;;;10393660;28;20557;-78
2023/04/07 14:27:38;;;;;;;14.82;8.32;;;13.60;94.20;;;;;;10421817;28;20430;-78
2023/04/07 14:32:59;;;;;;;11.50;8.10;;;13.50;94.30;;;;;;10394235;28;20448;-79
2023/04/07 14:38:24;;;;;;;13.57;6.97;;;13.20;96.80;;;;;;10429416;28;20228;-80
2023/04/07 14:43:47;;;;;;;9.38;7.25;;;13.10;97.00;;;;;;10419760;28;20307;-78
2023/04/07 14:49:08;;;;;;;14.60;8.90;;;13.00;96.40;;;;;;10395272;28;20239;-78
2023/04/07 14:54:29;;;;;;;17.73;11.63;;;12.70;97.20;;;;;;10355516;28;20215;-78
2023/04/07 14:59:50;;;;;;;20.90;13.47;;;12.50;97.30;;;;;;10383993;28;20245;-80
2023/04/07 15:05:12;;;;;;;21.93;13.23;;;12.40;97.40;;;;;;10361679;28;20200;-79
2023/04/07 15:10:34;;;;;;;19.30;11.60;;;12.30;98.00;;;;;;10383578;28;20196;-78
2023/04/07 15:15:55;;;;;;;15.27;8.47;;;12.20;97.90;;;;;;10383076;28;20491;-78
2023/04/07 15:21:17;;;;;;;16.40;8.97;;;12.10;98.20;;;;;;10388914;28;20293;-77
2023/04/07 15:26:39;;;;;;;12.70;7.97;;;11.90;99.90;;;;;;10369606;28;20308;-78
2023/04/07 15:32:00;;;;;;;10.63;8.00;;;11.80;99.90;;;;;;10395475;28;20441;-83
2023/04/07 15:37:21;;;;;;;10.77;7.57;;;11.70;99.90;;;;;;10401426;28;20315;-77
2023/04/07 15:42:42;;;;;;;11.40;7.57;;;11.80;99.90;;;;;;10391353;28;20503;-76
2023/04/07 15:48:03;;;;;;;20.73;9.50;;;11.70;99.90;;;;;;10386259;28;20207;-81
2023/04/07 15:53:24;;;;;;;17.17;9.33;;;11.60;99.90;;;;;;10400893;28;20386;-76
2023/04/07 15:58:45;;;;;;;34.43;15.73;;;11.60;99.90;;;;;;10421715;28;20227;-77
2023/04/07 16:04:06;;;;;;;23.27;12.97;;;11.50;99.90;;;;;;10440428;28;20388;-77
2023/04/07 16:09:28;;;;;;;21.53;14.17;;;11.40;99.90;;;;;;10367204;28;20204;-78
2023/04/07 16:14:49;;;;;;;29.77;19.20;;;11.10;99.90;;;;;;10418444;28;20205;-77
2023/04/07 16:20:14;;;;;;;23.27;15.13;;;11.00;99.90;;;;;;10425195;28;20226;-82
2023/04/07 16:25:36;;;;;;;22.23;11.67;;;10.90;99.90;;;;;;10404953;28;20199;-77
2023/04/07 16:30:57;;;;;;;13.73;10.00;;;10.80;99.90;;;;;;10383330;28;20220;-80
2023/04/07 16:36:18;;;;;;;20.80;12.37;;;10.80;99.90;;;;;;10360937;28;20297;-85
2023/04/07 16:41:40;;;;;;;20.63;12.50;;;10.80;99.90;;;;;;10377545;28;20200;-77
2023/04/07 16:47:01;;;;;;;17.50;11.97;;;10.70;99.90;;;;;;10398021;28;20273;-83
2023/04/07 16:52:23;;;;;;;18.33;11.80;;;10.70;99.90;;;;;;10415941;28;20217;-78
2023/04/07 16:57:45;;;;;;;18.37;12.30;;;10.60;99.90;;;;;;10413667;28;20265;-76
2023/04/07 17:03:06;;;;;;;20.93;12.57;;;10.50;99.90;;;;;;10415068;28;20227;-77
2023/04/07 17:08:27;;;;;;;18.47;11.20;;;10.40;99.90;;;;;;10397646;28;20208;-78
2023/04/07 17:13:48;;;;;;;18.93;12.10;;;10.40;99.90;;;;;;10399408;28;20384;-77
2023/04/07 17:19:09;;;;;;;21.40;13.60;;;10.30;99.90;;;;;;10374325;28;20225;-77
2023/04/07 17:24:31;;;;;;;19.10;12.97;;;10.30;99.90;;;;;;10358367;28;20201;-83
2023/04/07 17:29:51;;;;;;;22.90;14.40;;;10.20;99.90;;;;;;10343456;28;20438;-84
2023/04/07 17:35:13;;;;;;;17.83;11.97;;;10.00;99.90;;;;;;10361573;28;20212;-79
2023/04/07 17:40:34;;;;;;;20.83;12.67;;;9.90;99.90;;;;;;10357722;28;20227;-78
2023/04/07 17:45:55;;;;;;;22.70;15.13;;;9.90;99.90;;;;;;10363421;28;20227;-81
2023/04/07 17:51:17;;;;;;;20.10;13.00;;;9.90;99.90;;;;;;10411181;28;20250;-75
2023/04/07 17:56:38;;;;;;;21.00;13.60;;;9.90;99.90;;;;;;10413452;28;20240;-78
2023/04/07 18:02:06;;;;;;;24.73;13.13;;;9.80;99.90;;;;;;10409444;28;20213;-83
2023/04/07 18:07:28;;;;;;;18.93;12.93;;;9.70;99.90;;;;;;10396151;28;20256;-76
2023/04/07 18:12:49;;;;;;;20.67;14.63;;;9.60;99.90;;;;;;10408554;28;20283;-76
2023/04/07 18:18:10;;;;;;;22.20;13.33;;;9.60;99.90;;;;;;10380992;28;20250;-77
2023/04/07 18:23:31;;;;;;;18.67;12.77;;;9.40;99.90;;;;;;10402608;28;20194;-76
2023/04/07 18:28:52;;;;;;;16.57;11.83;;;9.40;99.90;;;;;;10416464;28;20212;-76
2023/04/07 18:34:14;;;;;;;21.63;11.83;;;9.30;99.90;;;;;;10439347;28;20195;-76
2023/04/07 18:39:35;;;;;;;19.87;12.70;;;9.20;99.90;;;;;;10393150;28;20224;-78
2023/04/07 18:44:56;;;;;;;20.90;12.60;;;9.20;99.90;;;;;;10400884;28;20240;-78
2023/04/07 18:50:18;;;;;;;18.77;13.10;;;9.10;99.90;;;;;;10407186;28;20196;-77
2023/04/07 18:55:40;;;;;;;17.93;12.70;;;9.10;99.90;;;;;;10401802;28;20409;-76
2023/04/07 19:01:01;;;;;;;20.37;13.03;;;9.10;99.90;;;;;;10395043;28;20262;-76
2023/04/07 19:06:22;;;;;;;37.20;21.50;;;9.10;99.90;;;;;;10383578;28;20390;-75
2023/04/07 19:11:43;;;;;;;29.67;17.57;;;9.10;99.90;;;;;;10372841;28;20212;-78
2023/04/07 19:17:05;;;;;;;28.57;16.63;;;9.00;99.90;;;;;;10353564;28;20194;-77
2023/04/07 19:22:26;;;;;;;30.03;19.03;;;8.90;99.90;;;;;;10400776;28;20287;-78
2023/04/07 19:27:47;;;;;;;28.67;19.67;;;8.90;99.90;;;;;;10435250;28;20241;-78
2023/04/07 19:33:08;;;;;;;35.33;21.37;;;8.80;99.90;;;;;;10442517;28;20263;-79
2023/04/07 19:38:29;;;;;;;37.13;18.67;;;8.80;99.90;;;;;;10373384;28;20301;-77
2023/04/07 19:43:50;;;;;;;57.67;29.03;;;8.70;99.90;;;;;;10379404;28;20247;-78
2023/04/07 19:49:11;;;;;;;38.03;23.57;;;8.70;99.90;;;;;;10400179;28;20256;-79
2023/04/07 19:54:32;;;;;;;31.90;19.23;;;8.60;99.90;;;;;;10350694;28;20198;-77
2023/04/07 19:59:53;;;;;;;31.23;20.47;;;8.60;99.90;;;;;;10440776;28;20220;-77
2023/04/07 20:05:17;;;;;;;35.27;19.77;;;8.70;99.90;;;;;;10415695;28;20199;-77
2023/04/07 20:10:37;;;;;;;32.27;19.70;;;8.80;99.90;;;;;;10384091;28;20277;-77
2023/04/07 20:15:58;;;;;;;38.97;24.60;;;8.90;99.90;;;;;;10399129;28;20199;-77
2023/04/07 20:21:20;;;;;;;44.30;25.27;;;8.90;99.90;;;;;;10397394;28;20522;-77
2023/04/07 20:26:41;;;;;;;67.63;36.23;;;8.90;99.90;;;;;;10399669;28;20195;-78
2023/04/07 20:32:02;;;;;;;91.87;50.50;;;9.00;99.90;;;;;;10398125;28;20196;-77
2023/04/07 20:37:25;;;;;;;83.53;51.23;;;9.00;99.90;;;;;;10367001;28;20214;-77
2023/04/07 20:42:46;;;;;;;63.63;38.03;;;8.90;99.90;;;;;;10378975;28;20199;-77
2023/04/07 20:48:07;;;;;;;56.33;34.33;;;8.90;99.90;;;;;;10397248;28;20267;-78
2023/04/07 20:53:28;;;;;;;84.27;39.83;;;8.90;99.90;;;;;;10361945;28;20253;-77
2023/04/07 20:58:49;;;;;;;74.83;36.97;;;8.90;99.90;;;;;;10356808;28;20291;-78
2023/04/07 21:04:11;;;;;;;73.27;37.63;;;8.70;99.90;;;;;;10356775;28;20490;-79
2023/04/07 21:09:32;;;;;;;60.10;31.67;;;8.70;99.90;;;;;;10373999;28;20251;-76
2023/04/07 21:14:53;;;;;;;46.13;27.60;;;8.60;99.90;;;;;;10397859;28;20354;-77
2023/04/07 21:20:14;;;;;;;53.00;29.30;;;8.50;99.90;;;;;;10393636;28;20231;-77
2023/04/07 21:25:39;;;;;;;45.10;25.07;;;8.40;99.90;;;;;;10357098;28;20243;-77
2023/04/07 21:31:00;;;;;;;43.33;23.93;;;8.20;99.90;;;;;;10357767;28;20446;-77
2023/04/07 21:36:21;;;;;;;49.20;26.37;;;8.20;99.90;;;;;;10369268;28;20203;-77
2023/04/07 21:41:42;;;;;;;40.37;23.60;;;8.10;99.90;;;;;;10397129;28;20250;-78
2023/04/07 21:47:03;;;;;;;32.40;19.47;;;7.90;99.90;;;;;;10394913;28;20239;-79
2023/04/07 21:52:26;;;;;;;32.93;19.43;;;7.80;99.90;;;;;;10399144;28;20458;-81
2023/04/07 21:57:48;;;;;;;27.40;17.40;;;7.70;99.90;;;;;;10396238;28;20288;-77
2023/04/07 22:03:10;;;;;;;31.63;18.17;;;7.60;99.90;;;;;;10396291;28;20196;-77
2023/04/07 22:08:31;;;;;;;31.43;19.63;;;7.60;99.90;;;;;;10372161;28;20259;-77
2023/04/07 22:13:52;;;;;;;27.50;17.77;;;7.60;99.90;;;;;;10378697;28;20255;-80
2023/04/07 22:19:14;;;;;;;28.50;18.33;;;7.50;99.90;;;;;;10386810;28;20240;-77
2023/04/07 22:24:35;;;;;;;27.53;17.40;;;7.50;99.90;;;;;;10407991;28;20201;-78
2023/04/07 22:29:56;;;;;;;26.43;16.40;;;7.40;99.90;;;;;;10406000;28;20199;-77
2023/04/07 22:35:17;;;;;;;23.73;15.33;;;7.40;99.90;;;;;;10400756;28;20191;-78
2023/04/07 22:40:39;;;;;;;24.07;15.17;;;7.40;99.90;;;;;;10407527;28;20270;-78
2023/04/07 22:46:00;;;;;;;23.30;15.20;;;7.30;99.90;;;;;;10394636;28;20223;-77
2023/04/07 22:51:21;;;;;;;24.77;15.03;;;7.40;99.90;;;;;;10394106;28;20283;-77
2023/04/07 22:56:43;;;;;;;25.83;18.30;;;7.30;99.90;;;;;;10392065;28;20286;-77
2023/04/07 23:02:05;;;;;;;25.30;16.90;;;7.20;99.90;;;;;;10435809;28;20264;-79
2023/04/07 23:07:26;;;;;;;26.93;16.47;;;7.20;99.90;;;;;;10428522;28;20261;-78
2023/04/07 23:12:47;;;;;;;22.30;14.90;;;7.30;99.90;;;;;;10390394;28;20381;-82
2023/04/07 23:18:08;;;;;;;27.27;16.50;;;7.30;99.90;;;;;;10402354;28;20218;-80
2023/04/07 23:23:29;;;;;;;27.87;17.73;;;7.30;99.90;;;;;;10405033;28;20241;-77
2023/04/07 23:28:50;;;;;;;27.30;16.73;;;7.30;99.90;;;;;;10409932;28;20203;-78
2023/04/07 23:34:11;;;;;;;24.27;15.50;;;7.30;99.90;;;;;;10408341;28;20217;-79
2023/04/07 23:39:33;;;;;;;25.67;14.60;;;7.20;99.90;;;;;;10405408;28;20231;-77
2023/04/07 23:44:54;;;;;;;30.03;15.20;;;7.30;99.90;;;;;;10426525;28;20231;-77
2023/04/07 23:50:15;;;;;;;25.73;15.57;;;7.30;99.90;;;;;;10400131;28;20200;-78
2023/04/07 23:55:37;;;;;;;24.37;14.67;;;7.30;99.90;;;;;;10379906;28;20385;-78
